Cleveland, TN

6:55 AM EDT on August 23, 2014 (GMT -0400)
Crossville Memorial-Whitson | Change Station
CLOSE
Current Station
Airport
Location: Crossville,
Elevation: 1880 ft
Nearby Weather Stations

Elev 1880 ft 35.95 °N, 85.08 °W | Updated 1 hour ago

Partly Cloudy
Partly Cloudy
71 °F
Feels Like 71 °F
N
4
Wind Variable Wind from West

Today
High -- | Low -- °F
--% Chance of Precip.
Yesterday
High -- | Low -- °F
Precip. -- in
7:05 AM 8:18 PM
Waning Crescent, 4% visible
Pressure 30.01 in
Visibility 4.0 miles
Clouds Few 2700 ft
Dew Point 68 °F
Humidity 90%
Rainfall 0.00 in
Snow Depth Not available.
UV 0 out of 12
Pollen 9.10 out of 12
Air Quality Not available.
Flu Activity Not available.
METAR KCSV 230953Z AUTO 26003KT 4SM BR FEW027 22/20 A3007 RMK AO2 LTG DSNT NW SLP160 T02170200

More Conditions Fewer Conditions

Pressure 30.01 in
Visibility 4.0 miles
Clouds Few 2700 ft
Dew Point 68 °F
Humidity 90%
Rainfall 0.00 in
Snow Depth Not available.
UV 0 out of 12
Pollen 9.10 out of 12
Air Quality Not available.
Flu Activity Not available.
METAR KCSV 230953Z AUTO 26003KT 4SM BR FEW027 22/20 A3007 RMK AO2 LTG DSNT NW SLP160 T02170200

More Conditions Fewer Conditions

10-Day Weather Forecast

Almanac

Astronomy

Aug. 23, 2014 Rise Set
Actual Time 7:05 AM EDT 8:18 PM EDT
Civil Twilight 6:38 AM EDT 8:44 PM EDT
Nautical Twilight 6:07 AM EDT 9:15 PM EDT
Astronomical Twilight 5:34 AM EDT 9:48 PM EDT
Moon 5:22 AM EDT 7:01 PM EDT
Length of Visible Light 14h 05m
Length of Day
13h 12m
Tomorrow will be 2m 2s shorter.
Waning Crescent, 4% of the Moon is Illuminated
Today
Waning Crescent
Aug 25
New
Sep 2
First Quarter
Sep 8
Full
Sep 15
Last Quarter

Today's Extremes

State Highs State Lows

Community

WunderPhotos

Upload Photos

1,746,396 photos uploaded!

WunderBlogs® & News

By Dr. Jeff Masters
Director of Meteorology, Weather Underground
By Kari Strenfel
Meteorologist, Weather Underground
By Christopher C. Burt
Weather Historian, Weather Underground
August 23, 2014
August 23, 2014
August 23, 2014

Nearby

Snow Depth

Station Depth Elevation
No new snow has been reported.

Earthquake Activity

City Distance Mag. Time & Date
No recent earthquake activity has been reported nearby.
Minimum magnitude displayed is 2.5.

Coastal Water Temperatures

Place Temperature
No Stations Reporting

Nearby Weather Stations